CheckWX is a tool to help pilots better visualize weather data.  It is not intended as a substitute for an official pre-flight weather briefing.

07:28:41 UTC

SKIB METAR
Perales Airport
Ibagué, Colombia
Current

9 hours ago

SKIB 242200Z 13010KT 9999 FEW030 BKN100 28/20 A3002
Observed
May-24 @ 22:00 UTC
Wind
  • 130° at 10 KTS
Visibility
10,000+ meters
Flight Rules
VFR
Cloud Levels
  • Few at 3,000' AGL
  • Broken at 10,000' AGL
Temperature
28°C / 82°F
Dewpoint
20°C / 68°F
Humidity
62%
Altimeter
30.02" Hg
Pressure
1016.62 hPa
Previous

10 hours ago

SKIB 242100Z 15006KT 9999 FEW030 BKN100 30/20 A2999
Observed
May-24 @ 21:00 UTC
Wind
  • 150° at 6 KTS
Visibility
10,000+ meters
Flight Rules
VFR
Cloud Levels
  • Few at 3,000' AGL
  • Broken at 10,000' AGL
Temperature
30°C / 86°F
Dewpoint
20°C / 68°F
Humidity
55%
Altimeter
29.99" Hg
Pressure
1015.62 hPa
Previous

11 hours ago

SKIB 242000Z 21007KT 9999 FEW030 BKN100 30/20 A3002
Observed
May-24 @ 20:00 UTC
Wind
  • 210° at 7 KTS
Visibility
10,000+ meters
Flight Rules
VFR
Cloud Levels
  • Few at 3,000' AGL
  • Broken at 10,000' AGL
Temperature
30°C / 86°F
Dewpoint
20°C / 68°F
Humidity
55%
Altimeter
30.02" Hg
Pressure
1016.62 hPa